Time;durP1;ratioP1;P1;durP2;ratioP2;P2;SDS_P1;SDS_P2;PMS_P1;PMS_P2;Temp;Humidity;BMP_temperature;BMP_pressure;BME280_temperature;BME280_humidity;BME280_pressure;Samples;Min_cycle;Max_cycle;Signal;HPM_P1;HPM_P2
2023/01/10 00:01:52;;;;;;;3.83;1.77;;;;;;;8.10;100.00;94860.28;5113872;28;20906;-56
2023/01/10 00:04:20;;;;;;;0.70;0.40;;;;;;;8.82;100.00;94915.44;5113650;28;20429;-56
2023/01/10 00:06:49;;;;;;;1.00;1.00;;;;;;;8.94;100.00;94910.66;5113352;28;20423;-56
2023/01/10 00:09:17;;;;;;;1.47;0.87;;;;;;;8.97;100.00;94903.25;5113003;28;20473;-56
2023/01/10 00:14:34;;;;;;;0.50;0.30;;;;;;;9.14;100.00;94895.78;5113194;28;20507;-56
2023/01/10 00:17:02;;;;;;;0.93;0.83;;;;;;;8.82;100.00;94910.16;5113019;28;20462;-56
2023/01/10 00:19:31;;;;;;;0.77;0.73;;;;;;;9.25;100.00;94910.56;5113787;28;20443;-56
2023/01/10 00:22:12;;;;;;;0.67;0.40;;;;;;;8.88;100.00;94914.38;5113534;28;20423;-56
2023/01/10 00:24:41;;;;;;;1.90;1.80;;;;;;;8.54;100.00;94915.22;5113768;28;20444;-56
2023/01/10 00:27:15;;;;;;;1.47;1.37;;;;;;;8.08;100.00;94859.78;5113183;28;20431;-56
2023/01/10 00:29:45;;;;;;;0.50;0.43;;;;;;;8.34;100.00;94904.66;5113414;28;20975;-56
2023/01/10 00:32:14;;;;;;;2.10;2.10;;;;;;;8.48;100.00;94917.06;5113616;28;20775;-57
2023/01/10 00:34:42;;;;;;;1.57;1.40;;;;;;;8.36;100.00;94913.13;5113337;28;20522;-57
2023/01/10 00:37:10;;;;;;;0.97;0.93;;;;;;;8.40;100.00;94900.97;5113201;28;20422;-57
2023/01/10 00:39:39;;;;;;;1.90;1.80;;;;;;;8.38;100.00;94892.50;5113045;28;20423;-56
2023/01/10 00:44:54;;;;;;;3.27;1.17;;;;;;;8.75;100.00;94885.09;5113245;28;20469;-57
2023/01/10 00:47:22;;;;;;;2.00;0.63;;;;;;;9.39;100.00;94887.75;5112987;28;20419;-57
2023/01/10 00:49:51;;;;;;;0.70;0.50;;;;;;;9.46;100.00;94886.38;5112877;28;20976;-57
2023/01/10 00:52:19;;;;;;;1.67;0.90;;;;;;;9.18;100.00;94828.09;5112944;28;20529;-57
2023/01/10 00:54:47;;;;;;;0.70;0.70;;;;;;;9.36;100.00;94869.81;5112876;28;20458;-57
2023/01/10 00:57:16;;;;;;;0.70;0.70;;;;;;;9.14;100.00;94879.94;5112668;28;20457;-57
2023/01/10 00:59:44;;;;;;;0.53;0.53;;;;;;;9.04;100.00;94869.38;5112710;28;20947;-57
2023/01/10 01:02:14;;;;;;;0.90;0.90;;;;;;;8.99;100.00;94872.03;5112659;28;20504;-57
2023/01/10 01:04:42;;;;;;;0.73;0.73;;;;;;;9.06;100.00;94877.88;5112551;28;20429;-57
2023/01/10 01:07:10;;;;;;;0.30;0.30;;;;;;;9.30;100.00;94847.06;5112558;28;20427;-57
2023/01/10 01:10:25;;;;;;;0.97;0.97;;;;;;;9.11;100.00;94862.75;5111931;28;20490;-57
2023/01/10 01:12:27;;;;;;;0.70;0.50;;;;;;;8.62;100.00;94859.22;5111862;28;21100;-56
2023/01/10 01:14:55;;;;;;;1.80;1.23;;;;;;;8.38;100.00;94803.53;5112026;28;20419;-56
2023/01/10 01:17:25;;;;;;;4.10;1.27;;;;;;;8.45;100.00;94832.31;5112018;28;20427;-56
2023/01/10 01:19:53;;;;;;;0.70;0.50;;;;;;;8.64;100.00;94841.25;5112335;28;20444;-56
2023/01/10 01:22:22;;;;;;;0.57;0.50;;;;;;;8.60;100.00;94797.94;5111897;28;20423;-56
2023/01/10 01:24:50;;;;;;;1.17;0.93;;;;;;;9.41;100.00;94838.81;5111964;28;20518;-56
2023/01/10 01:27:19;;;;;;;1.13;1.13;;;;;;;9.40;100.00;94817.94;5111900;28;20482;-56
2023/01/10 01:29:48;;;;;;;0.50;0.50;;;;;;;9.19;100.00;94809.31;5111763;28;20545;-56
2023/01/10 01:32:16;;;;;;;7.43;0.63;;;;;;;9.21;100.00;94801.13;5111863;28;20487;-56
2023/01/10 01:34:46;;;;;;;1.07;0.83;;;;;;;9.02;100.00;94792.22;5111964;28;20844;-56
2023/01/10 01:37:15;;;;;;;1.90;0.70;;;;;;;8.97;100.00;94789.59;5111745;28;20514;-57
2023/01/10 01:39:45;;;;;;;0.80;0.70;;;;;;;8.95;100.00;94792.53;5111859;28;20438;-57
2023/01/10 01:42:22;;;;;;;0.60;0.60;;;;;;;8.97;100.00;94789.59;5112040;28;20427;-57
2023/01/10 01:45:32;;;;;;;1.00;1.00;;;;;;;9.05;100.00;94784.56;5112093;28;20518;-56
2023/01/10 01:48:09;;;;;;;0.40;0.40;;;;;;;8.83;100.00;94770.88;5112043;28;20935;-56
2023/01/10 01:50:44;;;;;;;0.50;0.37;;;;;;;8.83;100.00;94758.47;5111616;28;20483;-57
2023/01/10 01:53:16;;;;;;;0.50;0.50;;;;;;;9.00;100.00;94746.78;5112042;28;20422;-57
2023/01/10 01:55:46;;;;;;;0.40;0.20;;;;;;;9.15;100.00;94744.03;5112006;28;20462;-57
2023/01/10 01:58:18;;;;;;;2.73;1.03;;;;;;;8.26;100.00;94624.31;5112051;28;20404;-56
2023/01/10 02:00:46;;;;;;;0.93;0.93;;;;;;;9.08;100.00;94709.19;5111552;28;20480;-56
2023/01/10 02:03:15;;;;;;;0.50;0.30;;;;;;;9.07;100.00;94708.41;5111256;28;20456;-57
2023/01/10 02:05:45;;;;;;;0.50;0.47;;;;;;;9.16;100.00;94717.31;5111620;28;20418;-57
2023/01/10 02:08:14;;;;;;;1.20;1.13;;;;;;;9.27;100.00;94710.13;5111394;28;20915;-57
2023/01/10 02:10:51;;;;;;;0.43;0.43;;;;;;;9.71;100.00;94702.09;5111724;28;21016;-57
2023/01/10 02:13:23;;;;;;;0.67;0.67;;;;;;;9.70;100.00;94709.25;5112138;28;20529;-57
2023/01/10 02:15:51;;;;;;;0.40;0.30;;;;;;;9.75;100.00;94709.22;5112157;28;20508;-57
2023/01/10 02:18:21;;;;;;;0.50;0.50;;;;;;;10.04;100.00;94695.97;5111802;28;20429;-57
2023/01/10 02:21:05;;;;;;;0.30;0.20;;;;;;;10.08;100.00;94687.19;5115084;28;20429;-57
2023/01/10 02:24:16;;;;;;;0.60;0.60;;;;;;;9.97;100.00;94677.75;5115498;28;20424;-56
2023/01/10 02:27:05;;;;;;;0.87;0.87;;;;;;;10.28;100.00;94685.41;5042061;28;20438;-56
2023/01/10 02:30:14;;;;;;;1.33;0.30;;;;;;;10.45;100.00;94678.56;5115323;28;20470;-56
2023/01/10 02:32:49;;;;;;;0.37;0.30;;;;;;;10.52;100.00;94672.94;5115435;28;20977;-56
2023/01/10 02:36:02;;;;;;;0.30;0.30;;;;;;;10.63;100.00;94674.38;5115733;28;20833;-56
2023/01/10 02:38:42;;;;;;;0.70;0.70;;;;;;;10.40;100.00;94675.22;5115318;28;20439;-56
2023/01/10 02:41:18;;;;;;;0.60;0.60;;;;;;;9.99;100.00;94627.97;5115332;28;20432;-57
2023/01/10 02:43:51;;;;;;;0.43;0.37;;;;;;;9.41;100.00;94579.63;5114463;28;20430;-57
2023/01/10 02:46:26;;;;;;;0.40;0.30;;;;;;;10.47;100.00;94663.22;5115186;28;20421;-56
2023/01/10 02:48:56;;;;;;;0.43;0.33;;;;;;;10.03;100.00;94602.53;5115079;28;20461;-57
2023/01/10 02:51:27;;;;;;;0.37;0.27;;;;;;;10.46;100.00;94652.88;5114998;28;20481;-57
2023/01/10 02:54:00;;;;;;;0.40;0.40;;;;;;;10.65;100.00;94657.13;5115467;28;20480;-56
2023/01/10 02:56:49;;;;;;;1.00;1.00;;;;;;;10.41;100.00;94650.28;5115054;28;20510;-56
2023/01/10 02:59:50;;;;;;;0.40;0.30;;;;;;;10.20;100.00;94597.56;5114880;28;20427;-57
2023/01/10 03:02:30;;;;;;;0.40;0.40;;;;;;;10.24;100.00;94571.31;5115139;28;20432;-57
2023/01/10 03:05:07;;;;;;;0.40;0.40;;;;;;;10.65;100.00;94621.91;5114933;28;20510;-56
2023/01/10 03:07:41;;;;;;;0.40;0.30;;;;;;;9.93;100.00;94549.69;5114820;28;20423;-56
2023/01/10 03:10:14;;;;;;;1.00;0.60;;;;;;;10.50;100.00;94622.13;5114746;28;20469;-56
2023/01/10 03:12:54;;;;;;;0.30;0.20;;;;;;;10.46;100.00;94627.19;5114778;28;20423;-56
2023/01/10 03:15:24;;;;;;;0.30;0.30;;;;;;;10.44;100.00;94617.94;5114920;28;20464;-56
2023/01/10 03:17:58;;;;;;;0.47;0.47;;;;;;;10.58;100.00;94606.34;5114468;28;20441;-56
2023/01/10 03:20:32;;;;;;;0.53;0.53;;;;;;;10.65;100.00;94601.47;5114600;28;20423;-56
2023/01/10 03:23:04;;;;;;;0.50;0.30;;;;;;;10.36;100.00;94590.22;5114399;28;20513;-56
2023/01/10 03:25:36;;;;;;;0.43;0.43;;;;;;;10.37;100.00;94593.66;5114720;28;20884;-56
2023/01/10 03:28:07;;;;;;;0.50;0.40;;;;;;;10.30;100.00;94595.84;5114326;28;20430;-56
2023/01/10 03:30:41;;;;;;;0.50;0.50;;;;;;;10.55;100.00;94579.66;5113344;28;20547;-56
2023/01/10 03:33:12;;;;;;;0.40;0.40;;;;;;;10.35;100.00;94585.22;5114174;28;20434;-56
2023/01/10 03:35:50;;;;;;;0.40;0.40;;;;;;;10.59;100.00;94588.59;5114015;28;20426;-56
2023/01/10 03:38:26;;;;;;;0.80;0.50;;;;;;;10.67;100.00;94578.16;5113974;28;20463;-56
2023/01/10 03:41:01;;;;;;;0.90;0.90;;;;;;;10.30;100.00;94569.38;5114187;28;20428;-57
2023/01/10 03:46:32;;;;;;;0.50;0.50;;;;;;;10.40;100.00;94563.97;5113952;28;20431;-56
2023/01/10 03:49:03;;;;;;;2.17;2.03;;;;;;;10.05;100.00;94563.31;5113854;28;20423;-56
2023/01/10 03:51:36;;;;;;;0.73;0.73;;;;;;;9.84;100.00;94577.06;5113683;28;20558;-56
2023/01/10 03:54:05;;;;;;;0.40;0.40;;;;;;;10.08;100.00;94589.22;5113503;28;20435;-55
2023/01/10 03:56:44;;;;;;;0.50;0.50;;;;;;;10.39;100.00;94567.69;5113871;28;20790;-55
2023/01/10 03:59:12;;;;;;;0.40;0.30;;;;;;;10.49;100.00;94570.97;5113641;28;20419;-55
2023/01/10 04:01:41;;;;;;;0.60;0.60;;;;;;;10.56;100.00;94578.56;5113544;28;20458;-55
2023/01/10 04:04:10;;;;;;;0.37;0.30;;;;;;;10.60;100.00;94582.22;5113981;28;20496;-56
2023/01/10 04:06:40;;;;;;;1.33;1.23;;;;;;;10.69;100.00;94572.53;5113701;28;20423;-56
2023/01/10 04:09:09;;;;;;;0.30;0.30;;;;;;;10.48;100.00;94521.72;5113368;28;20881;-56
2023/01/10 04:11:38;;;;;;;0.40;0.30;;;;;;;10.75;100.00;94555.50;5113407;28;20423;-56
2023/01/10 04:14:06;;;;;;;0.50;0.50;;;;;;;10.74;100.00;94548.63;5113349;28;20423;-56
2023/01/10 04:16:34;;;;;;;0.30;0.30;;;;;;;10.78;100.00;94560.22;5113281;28;20433;-56
2023/01/10 04:19:03;;;;;;;0.43;0.43;;;;;;;10.23;100.00;94572.38;5113255;28;20423;-56
2023/01/10 04:21:31;;;;;;;0.50;0.50;;;;;;;9.63;100.00;94573.06;5113128;28;20523;-56
2023/01/10 04:24:01;;;;;;;0.87;0.60;;;;;;;10.04;100.00;94574.97;5113099;28;20493;-55
2023/01/10 04:26:29;;;;;;;2.40;1.43;;;;;;;10.31;100.00;94566.47;5113297;28;20453;-55
2023/01/10 04:28:58;;;;;;;0.50;0.50;;;;;;;10.41;100.00;94546.97;5112892;28;20479;-55
2023/01/10 04:31:26;;;;;;;2.30;1.00;;;;;;;10.58;100.00;94552.56;5112858;28;20467;-56
2023/01/10 04:33:55;;;;;;;0.90;0.87;;;;;;;10.17;100.00;94470.25;5112873;28;20479;-56
2023/01/10 04:36:23;;;;;;;0.33;0.20;;;;;;;10.68;100.00;94536.50;5113057;28;20515;-56
2023/01/10 04:38:51;;;;;;;0.47;0.33;;;;;;;10.59;100.00;94527.66;5112827;28;20430;-56
2023/01/10 04:41:21;;;;;;;0.57;0.57;;;;;;;10.66;100.00;94541.31;5112988;28;20460;-56
2023/01/10 04:43:49;;;;;;;0.60;0.40;;;;;;;10.57;100.00;94533.25;5112436;28;20533;-56
2023/01/10 04:46:18;;;;;;;0.30;0.20;;;;;;;10.31;100.00;94515.34;5112974;28;20429;-56
2023/01/10 04:48:46;;;;;;;1.00;0.87;;;;;;;10.57;100.00;94522.66;5112732;28;20447;-56
2023/01/10 04:51:14;;;;;;;0.40;0.30;;;;;;;10.53;100.00;94526.94;5112259;28;20998;-56
2023/01/10 04:53:43;;;;;;;0.40;0.33;;;;;;;10.62;100.00;94511.19;5112133;28;20791;-56
2023/01/10 04:56:16;;;;;;;0.70;0.40;;;;;;;10.71;100.00;94512.88;5112366;28;20427;-56
2023/01/10 04:58:47;;;;;;;2.53;0.87;;;;;;;10.78;100.00;94504.56;5112437;28;20939;-56
2023/01/10 05:01:19;;;;;;;0.60;0.60;;;;;;;10.15;100.00;94512.13;5112313;28;20427;-56
2023/01/10 05:03:47;;;;;;;3.80;2.40;;;;;;;9.91;100.00;94520.09;5112253;28;20938;-55
2023/01/10 05:06:16;;;;;;;0.50;0.50;;;;;;;9.90;100.00;94530.94;5112289;28;20485;-55
2023/01/10 05:08:45;;;;;;;1.43;1.33;;;;;;;10.16;100.00;94525.09;5112095;28;20423;-56
2023/01/10 05:11:13;;;;;;;0.53;0.53;;;;;;;10.29;100.00;94520.16;5112283;28;20517;-55
2023/01/10 05:13:42;;;;;;;0.53;0.53;;;;;;;10.55;100.00;94524.00;5112417;28;20418;-55
2023/01/10 05:16:11;;;;;;;2.70;1.00;;;;;;;10.69;100.00;94506.28;5111951;28;20423;-55
2023/01/10 05:18:40;;;;;;;0.40;0.40;;;;;;;10.71;100.00;94515.53;5111783;28;20899;-55
2023/01/10 05:21:10;;;;;;;3.93;1.47;;;;;;;10.20;100.00;94527.94;5111938;28;20454;-55
2023/01/10 05:23:39;;;;;;;6.03;1.97;;;;;;;10.32;100.00;94527.53;5112241;28;20415;-55
2023/01/10 05:26:09;;;;;;;0.70;0.50;;;;;;;10.47;100.00;94517.50;5111875;28;20960;-57
2023/01/10 05:28:37;;;;;;;0.67;0.67;;;;;;;10.58;100.00;94508.31;5111740;28;20513;-56
2023/01/10 05:31:06;;;;;;;1.43;1.43;;;;;;;10.39;100.00;94451.13;5112002;28;20473;-56
2023/01/10 05:33:36;;;;;;;0.60;0.60;;;;;;;10.70;100.00;94495.41;5111995;28;20427;-56
2023/01/10 05:36:06;;;;;;;1.37;1.37;;;;;;;10.71;100.00;94504.94;5111922;28;20423;-56
2023/01/10 05:38:35;;;;;;;1.63;1.63;;;;;;;10.56;100.00;94494.56;5111715;28;20513;-56
2023/01/10 05:41:03;;;;;;;0.50;0.50;;;;;;;10.38;100.00;94516.56;5111641;28;20424;-56
2023/01/10 05:43:31;;;;;;;0.93;0.93;;;;;;;10.54;100.00;94506.53;5111735;28;20514;-56
2023/01/10 05:46:18;;;;;;;0.60;0.60;;;;;;;10.65;100.00;94492.06;5111332;28;20475;-55
2023/01/10 05:48:48;;;;;;;5.10;0.80;;;;;;;10.71;100.00;94496.97;5111574;28;20513;-56
2023/01/10 05:51:16;;;;;;;0.87;0.70;;;;;;;10.80;100.00;94489.16;5111212;28;20526;-56
2023/01/10 05:53:44;;;;;;;1.90;1.80;;;;;;;10.68;100.00;94479.00;5111508;28;20428;-56
2023/01/10 05:56:13;;;;;;;3.10;0.87;;;;;;;10.79;100.00;94485.72;5115617;28;20454;-56
2023/01/10 05:58:41;;;;;;;2.13;1.70;;;;;;;10.94;100.00;94486.53;5115411;28;20428;-56
2023/01/10 06:01:11;;;;;;;0.80;0.80;;;;;;;10.44;100.00;94490.78;5115211;28;20918;-56
2023/01/10 06:03:39;;;;;;;3.30;3.10;;;;;;;9.90;100.00;94448.88;5115597;28;20433;-56
2023/01/10 06:06:09;;;;;;;1.47;1.27;;;;;;;10.19;100.00;94492.72;5115950;28;20434;-56
2023/01/10 06:08:37;;;;;;;0.60;0.60;;;;;;;10.51;100.00;94492.00;5115687;28;20778;-56
2023/01/10 06:11:06;;;;;;;1.67;1.57;;;;;;;10.27;100.00;94432.25;5114997;28;20542;-56
2023/01/10 06:13:34;;;;;;;2.90;0.67;;;;;;;10.70;100.00;94484.78;5115454;28;20421;-56
2023/01/10 06:16:03;;;;;;;0.80;0.80;;;;;;;10.78;100.00;94486.78;5115026;28;20484;-55
2023/01/10 06:18:32;;;;;;;2.60;2.40;;;;;;;10.71;100.00;94499.63;5115465;28;20458;-55
2023/01/10 06:21:00;;;;;;;0.80;0.80;;;;;;;10.69;100.00;94487.75;5115236;28;20458;-55
2023/01/10 06:23:30;;;;;;;0.60;0.60;;;;;;;10.54;100.00;94472.09;5114762;28;20426;-55
2023/01/10 06:25:58;;;;;;;3.70;3.60;;;;;;;10.09;100.00;94486.75;5115473;28;20451;-55
2023/01/10 06:28:26;;;;;;;4.30;0.90;;;;;;;10.17;100.00;94470.25;5115147;28;20514;-55
2023/01/10 06:30:55;;;;;;;5.03;2.13;;;;;;;10.42;100.00;94480.50;5115090;28;20466;-55
2023/01/10 06:33:23;;;;;;;3.43;3.23;;;;;;;10.40;100.00;94487.16;5115044;28;20557;-56
2023/01/10 06:35:51;;;;;;;1.73;1.73;;;;;;;10.69;100.00;94485.09;5115422;28;20423;-56
2023/01/10 06:38:20;;;;;;;9.00;2.10;;;;;;;10.71;100.00;94475.78;5115161;28;20538;-56
2023/01/10 06:40:50;;;;;;;8.20;3.43;;;;;;;10.80;100.00;94479.31;5115235;28;20450;-56
2023/01/10 06:43:18;;;;;;;4.93;1.63;;;;;;;10.65;100.00;94465.56;5114937;28;20454;-56
2023/01/10 06:45:47;;;;;;;3.53;2.97;;;;;;;10.76;100.00;94466.94;5114014;28;20513;-55
2023/01/10 06:48:15;;;;;;;8.47;2.63;;;;;;;10.85;100.00;94467.88;5114884;28;20423;-55
2023/01/10 06:50:43;;;;;;;0.80;0.43;;;;;;;10.59;100.00;94454.25;5113603;28;20560;-56
2023/01/10 06:53:12;;;;;;;1.80;1.70;;;;;;;10.65;100.00;94463.69;5114301;28;20458;-56
2023/01/10 06:55:40;;;;;;;2.00;1.57;;;;;;;10.69;100.00;94455.94;5114639;28;20467;-57
2023/01/10 06:58:10;;;;;;;1.20;1.13;;;;;;;10.66;100.00;94459.97;5114838;28;20516;-56
2023/01/10 07:00:39;;;;;;;2.00;1.90;;;;;;;10.62;100.00;94458.19;5113997;28;20427;-56
2023/01/10 07:03:09;;;;;;;2.20;2.00;;;;;;;10.15;100.00;94382.38;5114760;28;20479;-56
2023/01/10 07:05:37;;;;;;;5.53;2.30;;;;;;;10.66;100.00;94456.53;5113767;28;20421;-56
2023/01/10 07:08:06;;;;;;;5.13;2.80;;;;;;;10.56;100.00;94446.09;5113540;28;20527;-56
2023/01/10 07:10:34;;;;;;;1.87;1.67;;;;;;;10.61;100.00;94435.41;5113373;28;20475;-56
2023/01/10 07:13:02;;;;;;;1.53;1.43;;;;;;;10.66;100.00;94427.38;5113649;28;20437;-56
2023/01/10 07:15:32;;;;;;;6.13;1.97;;;;;;;10.52;100.00;94429.22;5113802;28;20422;-56
2023/01/10 07:18:00;;;;;;;5.20;4.33;;;;;;;10.43;100.00;94437.03;5113648;28;20511;-56
2023/01/10 07:20:29;;;;;;;1.13;1.13;;;;;;;10.52;100.00;94426.56;5113555;28;20456;-55
2023/01/10 07:22:59;;;;;;;2.33;2.20;;;;;;;10.66;100.00;94427.38;5113893;28;20507;-55
2023/01/10 07:25:29;;;;;;;1.60;1.17;;;;;;;10.91;100.00;94415.53;5113564;28;20431;-56
2023/01/10 07:27:57;;;;;;;3.03;2.57;;;;;;;10.22;100.00;94421.75;5113558;28;20507;-55
2023/01/10 07:30:25;;;;;;;3.73;3.50;;;;;;;9.67;100.00;94429.34;5113742;28;20421;-56
2023/01/10 07:32:56;;;;;;;4.20;1.50;;;;;;;9.67;100.00;94425.91;5113696;28;20486;-55
2023/01/10 07:35:25;;;;;;;3.93;3.60;;;;;;;9.72;100.00;94425.84;5112965;28;20427;-55
2023/01/10 07:37:54;;;;;;;0.97;0.97;;;;;;;9.78;100.00;94369.94;5113610;28;20427;-56
2023/01/10 07:40:22;;;;;;;1.07;0.97;;;;;;;10.23;100.00;94418.00;5113388;28;20420;-55
2023/01/10 07:42:55;;;;;;;19.73;8.00;;;;;;;9.99;100.00;94423.38;5113379;28;20425;-55
2023/01/10 07:45:25;;;;;;;3.47;3.37;;;;;;;9.84;100.00;94418.28;5112883;28;20424;-55
2023/01/10 07:47:58;;;;;;;1.90;1.80;;;;;;;9.31;100.00;94340.97;5112181;28;20423;-55
2023/01/10 07:50:27;;;;;;;2.93;2.80;;;;;;;9.64;100.00;94405.34;5112956;28;20469;-56
2023/01/10 07:52:56;;;;;;;8.77;2.23;;;;;;;10.01;100.00;94414.06;5112895;28;20491;-55
2023/01/10 07:55:26;;;;;;;9.73;2.23;;;;;;;9.86;100.00;94369.31;5112945;28;20428;-55
2023/01/10 07:57:55;;;;;;;1.40;1.20;;;;;;;9.66;100.00;94340.50;5111812;28;20426;-56
2023/01/10 08:00:23;;;;;;;2.10;2.00;;;;;;;10.23;100.00;94413.50;5112979;28;20515;-56
2023/01/10 08:02:54;;;;;;;3.80;1.27;;;;;;;9.85;100.00;94346.53;5112668;28;20419;-56
2023/01/10 08:05:24;;;;;;;4.53;2.60;;;;;;;9.87;100.00;94405.25;5112780;28;20442;-55
2023/01/10 08:07:54;;;;;;;1.23;1.20;;;;;;;9.86;100.00;94401.06;5112400;28;20433;-55
2023/01/10 08:10:22;;;;;;;1.80;1.37;;;;;;;9.78;100.00;94412.28;5112693;28;20492;-55
2023/01/10 08:12:50;;;;;;;1.60;1.50;;;;;;;9.58;100.00;94408.06;5112543;28;20467;-55
2023/01/10 08:15:18;;;;;;;0.63;0.63;;;;;;;9.35;100.00;94389.56;5112593;28;20486;-56
2023/01/10 08:17:47;;;;;;;1.77;1.73;;;;;;;9.25;100.00;94394.97;5112595;28;20432;-55
2023/01/10 08:20:15;;;;;;;0.40;0.30;;;;;;;9.26;100.00;94386.00;5113111;28;20425;-55
2023/01/10 08:22:45;;;;;;;0.30;0.20;;;;;;;9.31;100.00;94391.97;5112934;28;20472;-56
2023/01/10 08:25:14;;;;;;;2.87;1.03;;;;;;;9.47;100.00;94388.09;5112778;28;20424;-55
2023/01/10 08:27:42;;;;;;;0.30;0.30;;;;;;;9.47;100.00;94372.22;5112822;28;20484;-55
2023/01/10 08:30:12;;;;;;;5.10;0.60;;;;;;;9.57;100.00;94352.78;5113062;28;20906;-55
2023/01/10 08:32:40;;;;;;;1.07;0.40;;;;;;;9.22;100.00;94372.53;5112567;28;20464;-56
2023/01/10 08:35:09;;;;;;;0.97;0.97;;;;;;;9.16;100.00;94371.00;5112362;28;20789;-55
2023/01/10 08:37:37;;;;;;;0.40;0.30;;;;;;;8.78;100.00;94367.47;5112607;28;20433;-55
2023/01/10 08:40:08;;;;;;;0.40;0.40;;;;;;;9.02;100.00;94366.69;5112205;28;20835;-55
2023/01/10 08:42:37;;;;;;;0.30;0.20;;;;;;;9.05;100.00;94358.22;5112663;28;20413;-56
2023/01/10 08:45:06;;;;;;;1.10;1.00;;;;;;;9.21;100.00;94368.31;5111995;28;20465;-56
2023/01/10 08:47:34;;;;;;;2.00;0.50;;;;;;;8.82;100.00;94350.03;5112469;28;20501;-55
2023/01/10 08:50:03;;;;;;;0.50;0.30;;;;;;;8.69;100.00;94312.91;5112336;28;20465;-55
2023/01/10 08:52:34;;;;;;;0.50;0.50;;;;;;;8.25;100.00;94328.91;5112789;28;20489;-55
2023/01/10 08:55:02;;;;;;;1.10;0.70;;;;;;;8.40;100.00;94365.75;5112648;28;20953;-55
2023/01/10 08:57:32;;;;;;;0.47;0.47;;;;;;;8.61;100.00;94356.56;5112142;28;20513;-55
2023/01/10 09:00:00;;;;;;;0.40;0.30;;;;;;;8.81;100.00;94359.00;5112603;28;20442;-55
2023/01/10 09:02:29;;;;;;;0.80;0.80;;;;;;;8.90;100.00;94357.31;5112702;28;20454;-55
2023/01/10 09:04:57;;;;;;;0.70;0.70;;;;;;;8.48;100.00;94256.09;5112009;28;20427;-55
2023/01/10 09:07:27;;;;;;;0.57;0.57;;;;;;;9.35;100.00;94337.47;5112138;28;20854;-55
2023/01/10 09:09:55;;;;;;;0.70;0.63;;;;;;;9.69;100.00;94341.78;5112288;28;20420;-55
2023/01/10 09:15:11;;;;;;;1.33;1.33;;;;;;;8.99;100.00;94319.69;5111610;28;20958;-55
2023/01/10 09:17:39;;;;;;;0.50;0.50;;;;;;;9.31;100.00;94319.84;5112487;28;20451;-55
2023/01/10 09:20:09;;;;;;;1.20;1.10;;;;;;;9.13;100.00;94310.81;5112089;28;20431;-55
2023/01/10 09:22:38;;;;;;;1.27;1.17;;;;;;;9.45;100.00;94305.59;5111995;28;20410;-55
2023/01/10 09:25:07;;;;;;;2.83;0.70;;;;;;;9.55;100.00;94288.78;5111924;28;20917;-55
2023/01/10 09:27:35;;;;;;;0.40;0.40;;;;;;;9.38;100.00;94299.91;5112138;28;20501;-56
2023/01/10 09:30:04;;;;;;;2.40;0.50;;;;;;;9.56;100.00;94269.97;5111102;28;20944;-56
2023/01/10 09:32:34;;;;;;;1.90;1.60;;;;;;;9.55;100.00;94214.75;5112086;28;20545;-55
2023/01/10 09:35:03;;;;;;;0.60;0.60;;;;;;;9.50;100.00;94291.50;5111759;28;20419;-55
2023/01/10 09:37:32;;;;;;;1.53;1.47;;;;;;;8.95;100.00;94290.44;5111687;28;20794;-55
2023/01/10 09:40:01;;;;;;;3.60;0.63;;;;;;;8.78;100.00;94248.59;5111658;28;20428;-55
2023/01/10 09:42:53;;;;;;;5.30;2.73;;;;;;;9.44;100.00;94260.91;5111789;28;20478;-55
2023/01/10 09:45:31;;;;;;;4.10;1.63;;;;;;;9.92;100.00;94249.03;5110944;28;20904;-55
2023/01/10 09:48:06;;;;;;;0.30;0.30;;;;;;;10.02;100.00;94246.22;5111717;28;20938;-55
2023/01/10 09:50:44;;;;;;;1.03;0.83;;;;;;;9.67;100.00;94240.72;5111518;28;20475;-56
2023/01/10 09:53:16;;;;;;;0.83;0.83;;;;;;;9.41;100.00;94258.88;5111733;28;20491;-56
2023/01/10 09:55:48;;;;;;;1.03;0.80;;;;;;;9.14;100.00;94261.34;5111225;28;20796;-56
2023/01/10 09:58:20;;;;;;;4.10;1.53;;;;;;;9.06;100.00;94256.72;5111893;28;20506;-55
2023/01/10 10:00:52;;;;;;;1.07;1.07;;;;;;;9.47;100.00;94247.91;5111909;28;20862;-55
2023/01/10 10:03:30;;;;;;;0.63;0.63;;;;;;;9.77;100.00;94225.47;5111790;28;20788;-56
2023/01/10 10:05:58;;;;;;;0.53;0.50;;;;;;;10.06;100.00;94230.56;5111374;28;20514;-55
2023/01/10 10:08:39;;;;;;;2.00;0.83;;;;;;;10.12;100.00;94230.19;5111346;28;20428;-55
2023/01/10 10:11:25;;;;;;;0.37;0.33;;;;;;;10.02;100.00;94219.75;5111422;28;20921;-55
2023/01/10 10:14:02;;;;;;;0.50;0.50;;;;;;;10.00;100.00;94219.25;5111159;28;20554;-56
2023/01/10 10:16:41;;;;;;;0.30;0.27;;;;;;;10.29;100.00;94220.91;5111390;28;20419;-55
2023/01/10 10:19:20;;;;;;;1.77;1.67;;;;;;;10.46;100.00;94223.75;5111254;28;20845;-55
2023/01/10 10:21:58;;;;;;;0.63;0.53;;;;;;;10.48;100.00;94208.34;5111574;28;20433;-55
2023/01/10 10:24:42;;;;;;;0.50;0.40;;;;;;;10.42;100.00;94212.19;5111335;28;20414;-55
2023/01/10 10:27:21;;;;;;;0.80;0.80;;;;;;;10.38;100.00;94196.06;5111224;28;20513;-55
2023/01/10 10:30:04;;;;;;;0.63;0.63;;;;;;;10.37;100.00;94209.63;5111687;28;20525;-55
2023/01/10 10:33:09;;;;;;;1.83;0.90;;;;;;;10.32;100.00;94213.16;5111225;28;20445;-54
2023/01/10 10:35:43;;;;;;;0.73;0.73;;;;;;;10.40;100.00;94206.41;5111173;28;20481;-56
2023/01/10 10:38:17;;;;;;;3.30;0.93;;;;;;;10.47;100.00;94193.53;5111242;28;20429;-54
2023/01/10 10:40:48;;;;;;;2.63;2.43;;;;;;;10.42;100.00;94180.38;5112628;28;20484;-55
2023/01/10 10:43:20;;;;;;;2.60;1.97;;;;;;;10.38;100.00;94182.03;5115214;28;20446;-55
2023/01/10 10:45:54;;;;;;;1.03;1.03;;;;;;;10.49;100.00;94184.22;5114701;28;20430;-56
2023/01/10 10:48:27;;;;;;;1.60;1.50;;;;;;;10.11;100.00;94180.94;5114721;28;20525;-55
2023/01/10 10:51:08;;;;;;;0.50;0.50;;;;;;;10.55;100.00;94176.97;5113775;28;20539;-55
2023/01/10 10:53:37;;;;;;;2.10;2.10;;;;;;;10.47;100.00;94151.16;5114556;28;21012;-55
2023/01/10 10:56:11;;;;;;;1.00;1.00;;;;;;;10.61;100.00;94162.50;5114607;28;20939;-55
2023/01/10 10:58:42;;;;;;;3.17;2.20;;;;;;;10.35;100.00;94159.59;5114486;28;20555;-55
2023/01/10 11:01:13;;;;;;;2.10;2.00;;;;;;;10.48;100.00;94155.34;5114384;28;20458;-55
2023/01/10 11:03:47;;;;;;;2.03;1.83;;;;;;;10.23;100.00;94151.34;5114350;28;20930;-55
2023/01/10 11:06:18;;;;;;;1.93;1.83;;;;;;;10.16;100.00;94143.81;5114376;28;20426;-56
2023/01/10 11:08:50;;;;;;;1.20;1.10;;;;;;;10.15;100.00;94091.94;5114018;28;20459;-56
2023/01/10 11:11:24;;;;;;;6.00;2.23;;;;;;;10.47;100.00;94135.25;5114442;28;20503;-56
2023/01/10 11:13:55;;;;;;;2.80;2.60;;;;;;;10.24;100.00;94110.56;5113259;28;20471;-56
2023/01/10 11:16:29;;;;;;;1.43;1.33;;;;;;;10.38;100.00;94107.88;5114593;28;20443;-55
2023/01/10 11:19:20;;;;;;;1.83;1.70;;;;;;;10.69;100.00;94128.16;5114050;28;20977;-55
2023/01/10 11:21:54;;;;;;;1.40;1.40;;;;;;;10.44;100.00;94112.00;5114147;28;20446;-55
2023/01/10 11:24:27;;;;;;;1.23;1.20;;;;;;;10.69;100.00;94122.06;5114046;28;20770;-55
2023/01/10 11:26:56;;;;;;;3.50;3.20;;;;;;;10.60;100.00;94113.25;5114023;28;20427;-55
2023/01/10 11:29:28;;;;;;;2.43;2.20;;;;;;;10.12;100.00;94103.13;5113391;28;20493;-55
2023/01/10 11:31:57;;;;;;;1.33;0.73;;;;;;;10.45;100.00;94119.66;5113596;28;20443;-55
2023/01/10 11:34:29;;;;;;;2.77;1.60;;;;;;;10.34;100.00;94105.06;5112810;28;20989;-55
2023/01/10 11:37:01;;;;;;;0.77;0.77;;;;;;;9.75;100.00;94046.94;5114093;28;20424;-55
2023/01/10 11:39:31;;;;;;;1.23;1.13;;;;;;;10.37;100.00;94098.41;5113113;28;20427;-55
2023/01/10 11:42:28;;;;;;;0.77;0.77;;;;;;;10.26;100.00;94100.47;5113998;28;20419;-55
2023/01/10 11:45:21;;;;;;;0.90;0.90;;;;;;;10.34;100.00;94118.31;5113671;28;20427;-56
2023/01/10 11:47:55;;;;;;;2.13;2.03;;;;;;;10.43;100.00;94113.06;5113824;28;21052;-56
2023/01/10 11:50:25;;;;;;;0.60;0.60;;;;;;;10.66;100.00;94120.78;5113349;28;21271;-55
2023/01/10 11:52:56;;;;;;;2.30;1.10;;;;;;;10.76;100.00;94125.09;5112832;28;20460;-55
2023/01/10 11:55:27;;;;;;;1.27;1.27;;;;;;;10.60;100.00;94142.41;5113479;28;20542;-55
2023/01/10 11:58:02;;;;;;;2.83;1.13;;;;;;;10.54;100.00;94103.84;5113232;28;20503;-55
2023/01/10 12:00:35;;;;;;;7.17;3.27;;;;;;;10.21;100.00;94034.38;5113129;28;20895;-55
2023/01/10 12:03:14;;;;;;;0.40;0.30;;;;;;;10.99;100.00;94113.44;5113366;28;20414;-55